sensor_id;sensor_type;location;lat;lon;timestamp;temperature;humidity
15355;DHT22;7777;52.254;9.618;2022-12-18T00:01:23;-3.50;99.90
15355;DHT22;7777;52.254;9.618;2022-12-18T00:03:51;-3.50;99.90
15355;DHT22;7777;52.254;9.618;2022-12-18T00:06:19;-3.40;99.90
15355;DHT22;7777;52.254;9.618;2022-12-18T00:08:45;-3.50;99.90
15355;DHT22;7777;52.254;9.618;2022-12-18T00:11:14;-3.60;99.90
15355;DHT22;7777;52.254;9.618;2022-12-18T00:13:42;-3.60;99.90
15355;DHT22;7777;52.254;9.618;2022-12-18T00:16:15;-3.60;99.90
15355;DHT22;7777;52.254;9.618;2022-12-18T00:18:47;-3.60;99.90
15355;DHT22;7777;52.254;9.618;2022-12-18T00:21:14;-3.60;99.90
15355;DHT22;7777;52.254;9.618;2022-12-18T00:23:42;-3.60;99.90
15355;DHT22;7777;52.254;9.618;2022-12-18T00:26:18;-3.60;99.90
15355;DHT22;7777;52.254;9.618;2022-12-18T00:28:46;-3.70;99.90
15355;DHT22;7777;52.254;9.618;2022-12-18T00:31:15;-3.70;99.90
15355;DHT22;7777;52.254;9.618;2022-12-18T00:33:42;-3.60;99.90
15355;DHT22;7777;52.254;9.618;2022-12-18T00:36:17;-3.70;99.90
15355;DHT22;7777;52.254;9.618;2022-12-18T00:38:45;-3.70;99.90
15355;DHT22;7777;52.254;9.618;2022-12-18T00:41:12;-3.70;99.90
15355;DHT22;7777;52.254;9.618;2022-12-18T00:43:39;-3.70;99.90
15355;DHT22;7777;52.254;9.618;2022-12-18T00:46:06;-3.80;99.90
15355;DHT22;7777;52.254;9.618;2022-12-18T00:48:32;-3.80;99.90
15355;DHT22;7777;52.254;9.618;2022-12-18T00:50:58;-3.80;99.90
15355;DHT22;7777;52.254;9.618;2022-12-18T00:53:23;-3.80;99.90
15355;DHT22;7777;52.254;9.618;2022-12-18T00:55:49;-3.90;99.90
15355;DHT22;7777;52.254;9.618;2022-12-18T00:58:16;-3.90;99.90
15355;DHT22;7777;52.254;9.618;2022-12-18T01:00:42;-3.90;99.90
15355;DHT22;7777;52.254;9.618;2022-12-18T01:03:10;-3.90;99.90
15355;DHT22;7777;52.254;9.618;2022-12-18T01:05:42;-4.00;99.90
15355;DHT22;7777;52.254;9.618;2022-12-18T01:08:07;-4.00;99.90
15355;DHT22;7777;52.254;9.618;2022-12-18T01:10:33;-4.10;99.90
15355;DHT22;7777;52.254;9.618;2022-12-18T01:12:59;-4.10;99.90
15355;DHT22;7777;52.254;9.618;2022-12-18T01:15:25;-4.10;99.90
15355;DHT22;7777;52.254;9.618;2022-12-18T01:17:52;-4.20;99.90
15355;DHT22;7777;52.254;9.618;2022-12-18T01:20:18;-4.10;99.90
15355;DHT22;7777;52.254;9.618;2022-12-18T01:22:44;-4.10;99.90
15355;DHT22;7777;52.254;9.618;2022-12-18T01:25:10;-4.20;99.90
15355;DHT22;7777;52.254;9.618;2022-12-18T01:27:36;-4.20;99.90
15355;DHT22;7777;52.254;9.618;2022-12-18T01:30:02;-4.10;99.90
15355;DHT22;7777;52.254;9.618;2022-12-18T01:32:30;-4.20;99.90
15355;DHT22;7777;52.254;9.618;2022-12-18T01:34:56;-4.10;99.90
15355;DHT22;7777;52.254;9.618;2022-12-18T01:37:22;-4.20;99.90
15355;DHT22;7777;52.254;9.618;2022-12-18T01:39:47;-4.10;99.90
15355;DHT22;7777;52.254;9.618;2022-12-18T01:42:15;-4.10;99.90
15355;DHT22;7777;52.254;9.618;2022-12-18T01:44:59;-4.10;99.90
15355;DHT22;7777;52.254;9.618;2022-12-18T01:47:47;-4.10;99.90
15355;DHT22;7777;52.254;9.618;2022-12-18T01:50:19;-4.10;99.90
15355;DHT22;7777;52.254;9.618;2022-12-18T01:52:48;-4.10;99.90
15355;DHT22;7777;52.254;9.618;2022-12-18T01:55:19;-4.10;99.90
15355;DHT22;7777;52.254;9.618;2022-12-18T01:57:48;-4.10;99.90
15355;DHT22;7777;52.254;9.618;2022-12-18T02:00:18;-4.10;99.90
15355;DHT22;7777;52.254;9.618;2022-12-18T02:02:46;-4.10;99.90
15355;DHT22;7777;52.254;9.618;2022-12-18T02:05:16;-4.10;99.90
15355;DHT22;7777;52.254;9.618;2022-12-18T02:13:19;-4.10;99.90
15355;DHT22;7777;52.254;9.618;2022-12-18T02:18:47;-4.10;99.90
15355;DHT22;7777;52.254;9.618;2022-12-18T02:24:41;-4.10;99.90
15355;DHT22;7777;52.254;9.618;2022-12-18T02:27:24;-4.00;99.90
15355;DHT22;7777;52.254;9.618;2022-12-18T02:30:00;-4.10;99.90
15355;DHT22;7777;52.254;9.618;2022-12-18T02:32:30;-4.10;99.90
15355;DHT22;7777;52.254;9.618;2022-12-18T02:34:59;-4.10;99.90
15355;DHT22;7777;52.254;9.618;2022-12-18T02:37:29;-4.00;99.90
15355;DHT22;7777;52.254;9.618;2022-12-18T02:39:57;-4.00;99.90
15355;DHT22;7777;52.254;9.618;2022-12-18T02:42:24;-4.00;99.90
15355;DHT22;7777;52.254;9.618;2022-12-18T02:44:51;-4.00;99.90
15355;DHT22;7777;52.254;9.618;2022-12-18T02:47:24;-4.10;99.90
15355;DHT22;7777;52.254;9.618;2022-12-18T02:50:08;-4.10;99.90
15355;DHT22;7777;52.254;9.618;2022-12-18T03:01:04;-4.10;99.90
15355;DHT22;7777;52.254;9.618;2022-12-18T03:03:51;-4.10;99.90
15355;DHT22;7777;52.254;9.618;2022-12-18T03:06:37;-4.10;99.90
15355;DHT22;7777;52.254;9.618;2022-12-18T03:09:11;-4.10;99.90
15355;DHT22;7777;52.254;9.618;2022-12-18T03:11:42;-4.00;99.90
15355;DHT22;7777;52.254;9.618;2022-12-18T03:14:32;-4.00;99.90
15355;DHT22;7777;52.254;9.618;2022-12-18T03:17:04;-4.00;99.90
15355;DHT22;7777;52.254;9.618;2022-12-18T03:19:32;-4.00;99.90
15355;DHT22;7777;52.254;9.618;2022-12-18T03:22:02;-4.10;99.90
15355;DHT22;7777;52.254;9.618;2022-12-18T03:24:29;-4.10;99.90
15355;DHT22;7777;52.254;9.618;2022-12-18T03:27:06;-4.10;99.90
15355;DHT22;7777;52.254;9.618;2022-12-18T03:29:38;-4.10;99.90
15355;DHT22;7777;52.254;9.618;2022-12-18T03:32:20;-4.10;99.90
15355;DHT22;7777;52.254;9.618;2022-12-18T03:34:51;-4.10;99.90
15355;DHT22;7777;52.254;9.618;2022-12-18T03:37:18;-4.10;99.90
15355;DHT22;7777;52.254;9.618;2022-12-18T03:39:43;-4.10;99.90
15355;DHT22;7777;52.254;9.618;2022-12-18T03:45:10;-4.20;99.90
15355;DHT22;7777;52.254;9.618;2022-12-18T03:50:57;-4.10;99.90
15355;DHT22;7777;52.254;9.618;2022-12-18T03:53:53;-4.10;99.90
15355;DHT22;7777;52.254;9.618;2022-12-18T03:56:24;-4.10;99.90
15355;DHT22;7777;52.254;9.618;2022-12-18T03:58:52;-4.10;99.90
15355;DHT22;7777;52.254;9.618;2022-12-18T04:01:22;-4.00;99.90
15355;DHT22;7777;52.254;9.618;2022-12-18T04:03:50;-3.90;99.90
15355;DHT22;7777;52.254;9.618;2022-12-18T04:06:17;-4.00;99.90
15355;DHT22;7777;52.254;9.618;2022-12-18T04:08:43;-4.00;99.90
15355;DHT22;7777;52.254;9.618;2022-12-18T04:11:10;-3.90;99.90
15355;DHT22;7777;52.254;9.618;2022-12-18T04:13:37;-4.00;99.90
15355;DHT22;7777;52.254;9.618;2022-12-18T04:16:03;-4.00;99.90
15355;DHT22;7777;52.254;9.618;2022-12-18T04:18:30;-4.00;99.90
15355;DHT22;7777;52.254;9.618;2022-12-18T04:20:56;-4.00;99.90
15355;DHT22;7777;52.254;9.618;2022-12-18T04:23:22;-4.00;99.90
15355;DHT22;7777;52.254;9.618;2022-12-18T04:25:48;-4.00;99.90
15355;DHT22;7777;52.254;9.618;2022-12-18T04:28:13;-4.00;99.90
15355;DHT22;7777;52.254;9.618;2022-12-18T04:30:39;-4.00;99.90
15355;DHT22;7777;52.254;9.618;2022-12-18T04:33:10;-4.00;99.90
15355;DHT22;7777;52.254;9.618;2022-12-18T04:35:36;-4.00;99.90
15355;DHT22;7777;52.254;9.618;2022-12-18T04:38:02;-4.10;99.90
15355;DHT22;7777;52.254;9.618;2022-12-18T04:40:27;-4.00;99.90
15355;DHT22;7777;52.254;9.618;2022-12-18T04:42:53;-4.10;99.90
15355;DHT22;7777;52.254;9.618;2022-12-18T04:45:19;-4.10;99.90
15355;DHT22;7777;52.254;9.618;2022-12-18T04:47:44;-4.00;99.90
15355;DHT22;7777;52.254;9.618;2022-12-18T04:50:10;-4.00;99.90
15355;DHT22;7777;52.254;9.618;2022-12-18T04:52:36;-4.00;99.90
15355;DHT22;7777;52.254;9.618;2022-12-18T04:55:02;-4.00;99.90
15355;DHT22;7777;52.254;9.618;2022-12-18T04:57:28;-4.00;99.90
15355;DHT22;7777;52.254;9.618;2022-12-18T04:59:54;-4.10;99.90
15355;DHT22;7777;52.254;9.618;2022-12-18T05:02:19;-4.10;99.90
15355;DHT22;7777;52.254;9.618;2022-12-18T05:04:45;-4.10;99.90
15355;DHT22;7777;52.254;9.618;2022-12-18T05:07:11;-4.10;99.90
15355;DHT22;7777;52.254;9.618;2022-12-18T05:09:36;-4.10;99.90
15355;DHT22;7777;52.254;9.618;2022-12-18T05:12:02;-4.10;99.90
15355;DHT22;7777;52.254;9.618;2022-12-18T05:14:28;-4.10;99.90
15355;DHT22;7777;52.254;9.618;2022-12-18T05:16:54;-4.10;99.90
15355;DHT22;7777;52.254;9.618;2022-12-18T05:19:20;-4.10;99.90
15355;DHT22;7777;52.254;9.618;2022-12-18T05:21:46;-4.10;99.90
15355;DHT22;7777;52.254;9.618;2022-12-18T05:24:12;-4.10;99.90
15355;DHT22;7777;52.254;9.618;2022-12-18T05:26:37;-4.10;99.90
15355;DHT22;7777;52.254;9.618;2022-12-18T05:29:03;-4.10;99.90
15355;DHT22;7777;52.254;9.618;2022-12-18T05:31:29;-4.10;99.90
15355;DHT22;7777;52.254;9.618;2022-12-18T05:33:55;-4.10;99.90
15355;DHT22;7777;52.254;9.618;2022-12-18T05:36:21;-4.10;99.90
15355;DHT22;7777;52.254;9.618;2022-12-18T05:38:46;-4.10;99.90
15355;DHT22;7777;52.254;9.618;2022-12-18T05:41:12;-4.10;99.90
15355;DHT22;7777;52.254;9.618;2022-12-18T05:43:39;-4.20;99.90
15355;DHT22;7777;52.254;9.618;2022-12-18T05:46:12;-4.10;99.90
15355;DHT22;7777;52.254;9.618;2022-12-18T05:48:38;-4.20;99.90
15355;DHT22;7777;52.254;9.618;2022-12-18T05:51:07;-4.20;99.90
15355;DHT22;7777;52.254;9.618;2022-12-18T05:53:38;-4.20;99.90
15355;DHT22;7777;52.254;9.618;2022-12-18T05:56:06;-4.20;99.90
15355;DHT22;7777;52.254;9.618;2022-12-18T05:58:33;-4.10;99.90
15355;DHT22;7777;52.254;9.618;2022-12-18T06:01:06;-4.10;99.90
15355;DHT22;7777;52.254;9.618;2022-12-18T06:03:51;-4.10;99.90
15355;DHT22;7777;52.254;9.618;2022-12-18T06:06:25;-4.10;99.90
15355;DHT22;7777;52.254;9.618;2022-12-18T06:08:53;-4.20;99.90
15355;DHT22;7777;52.254;9.618;2022-12-18T06:11:22;-4.10;99.90
15355;DHT22;7777;52.254;9.618;2022-12-18T06:13:50;-4.20;99.90
15355;DHT22;7777;52.254;9.618;2022-12-18T06:16:17;-4.10;99.90
15355;DHT22;7777;52.254;9.618;2022-12-18T06:18:43;-4.10;99.90
15355;DHT22;7777;52.254;9.618;2022-12-18T06:21:09;-4.10;99.90
15355;DHT22;7777;52.254;9.618;2022-12-18T06:23:34;-4.00;99.90
15355;DHT22;7777;52.254;9.618;2022-12-18T06:26:08;-4.00;99.90
15355;DHT22;7777;52.254;9.618;2022-12-18T06:28:35;-4.00;99.90
15355;DHT22;7777;52.254;9.618;2022-12-18T06:31:03;-4.00;99.90
15355;DHT22;7777;52.254;9.618;2022-12-18T06:33:30;-4.00;99.90
15355;DHT22;7777;52.254;9.618;2022-12-18T06:36:07;-3.90;99.90
15355;DHT22;7777;52.254;9.618;2022-12-18T06:38:37;-4.00;99.90
15355;DHT22;7777;52.254;9.618;2022-12-18T06:41:22;-4.00;99.90
15355;DHT22;7777;52.254;9.618;2022-12-18T06:43:47;-4.00;99.90
15355;DHT22;7777;52.254;9.618;2022-12-18T06:46:13;-4.00;99.90
15355;DHT22;7777;52.254;9.618;2022-12-18T06:48:39;-4.00;99.90
15355;DHT22;7777;52.254;9.618;2022-12-18T06:51:05;-4.00;99.90
15355;DHT22;7777;52.254;9.618;2022-12-18T06:53:32;-4.00;99.90
15355;DHT22;7777;52.254;9.618;2022-12-18T06:56:02;-4.10;99.90
15355;DHT22;7777;52.254;9.618;2022-12-18T06:58:29;-4.10;99.90
15355;DHT22;7777;52.254;9.618;2022-12-18T07:01:03;-4.10;99.90
15355;DHT22;7777;52.254;9.618;2022-12-18T07:03:30;-4.10;99.90
15355;DHT22;7777;52.254;9.618;2022-12-18T07:05:56;-4.10;99.90
15355;DHT22;7777;52.254;9.618;2022-12-18T07:08:22;-4.10;99.90
15355;DHT22;7777;52.254;9.618;2022-12-18T07:10:48;-4.10;99.90
15355;DHT22;7777;52.254;9.618;2022-12-18T07:13:17;-4.20;99.90
15355;DHT22;7777;52.254;9.618;2022-12-18T07:15:43;-4.10;99.90
15355;DHT22;7777;52.254;9.618;2022-12-18T07:18:09;-4.10;99.90
15355;DHT22;7777;52.254;9.618;2022-12-18T07:20:35;-4.10;99.90
15355;DHT22;7777;52.254;9.618;2022-12-18T07:23:03;-4.20;99.90
15355;DHT22;7777;52.254;9.618;2022-12-18T07:25:33;-4.20;99.90
15355;DHT22;7777;52.254;9.618;2022-12-18T07:28:00;-4.20;99.90
15355;DHT22;7777;52.254;9.618;2022-12-18T07:30:26;-4.20;99.90
15355;DHT22;7777;52.254;9.618;2022-12-18T07:32:51;-4.20;99.90
15355;DHT22;7777;52.254;9.618;2022-12-18T07:35:17;-4.20;99.90
15355;DHT22;7777;52.254;9.618;2022-12-18T07:37:44;-4.20;99.90
15355;DHT22;7777;52.254;9.618;2022-12-18T07:40:10;-4.20;99.90
15355;DHT22;7777;52.254;9.618;2022-12-18T07:42:36;-4.20;99.90
15355;DHT22;7777;52.254;9.618;2022-12-18T07:45:03;-4.30;99.90
15355;DHT22;7777;52.254;9.618;2022-12-18T07:47:29;-4.20;99.90
15355;DHT22;7777;52.254;9.618;2022-12-18T07:49:55;-4.20;99.90
15355;DHT22;7777;52.254;9.618;2022-12-18T07:52:21;-4.20;99.90
15355;DHT22;7777;52.254;9.618;2022-12-18T07:54:46;-4.20;99.90
15355;DHT22;7777;52.254;9.618;2022-12-18T07:57:15;-4.30;99.90
15355;DHT22;7777;52.254;9.618;2022-12-18T07:59:42;-4.20;99.90
15355;DHT22;7777;52.254;9.618;2022-12-18T08:02:07;-4.20;99.90
15355;DHT22;7777;52.254;9.618;2022-12-18T08:04:33;-4.20;99.90
15355;DHT22;7777;52.254;9.618;2022-12-18T08:06:59;-4.30;99.90
15355;DHT22;7777;52.254;9.618;2022-12-18T08:09:25;-4.30;99.90
15355;DHT22;7777;52.254;9.618;2022-12-18T08:11:50;-4.30;99.90
15355;DHT22;7777;52.254;9.618;2022-12-18T08:14:16;-4.30;99.90
15355;DHT22;7777;52.254;9.618;2022-12-18T08:16:42;-4.30;99.90
15355;DHT22;7777;52.254;9.618;2022-12-18T08:19:07;-4.30;99.90
15355;DHT22;7777;52.254;9.618;2022-12-18T08:21:36;-4.30;99.90
15355;DHT22;7777;52.254;9.618;2022-12-18T08:24:03;-4.20;99.90
15355;DHT22;7777;52.254;9.618;2022-12-18T08:26:30;-4.20;99.90
15355;DHT22;7777;52.254;9.618;2022-12-18T08:28:57;-4.10;99.90
15355;DHT22;7777;52.254;9.618;2022-12-18T08:31:26;-4.10;99.90
15355;DHT22;7777;52.254;9.618;2022-12-18T08:33:53;-4.00;99.90
15355;DHT22;7777;52.254;9.618;2022-12-18T08:36:20;-4.10;99.90
15355;DHT22;7777;52.254;9.618;2022-12-18T08:38:46;-4.10;99.90
15355;DHT22;7777;52.254;9.618;2022-12-18T08:41:13;-4.00;99.90
15355;DHT22;7777;52.254;9.618;2022-12-18T08:43:41;-4.00;99.90
15355;DHT22;7777;52.254;9.618;2022-12-18T08:46:27;-4.00;99.90
15355;DHT22;7777;52.254;9.618;2022-12-18T08:48:58;-3.90;99.90
15355;DHT22;7777;52.254;9.618;2022-12-18T08:51:24;-3.90;99.90
15355;DHT22;7777;52.254;9.618;2022-12-18T08:53:49;-3.90;99.90
15355;DHT22;7777;52.254;9.618;2022-12-18T08:56:15;-3.90;99.90
15355;DHT22;7777;52.254;9.618;2022-12-18T08:58:41;-3.90;99.90
15355;DHT22;7777;52.254;9.618;2022-12-18T09:01:09;-3.80;99.90
15355;DHT22;7777;52.254;9.618;2022-12-18T09:03:36;-3.80;99.90
15355;DHT22;7777;52.254;9.618;2022-12-18T09:06:02;-3.80;99.90
15355;DHT22;7777;52.254;9.618;2022-12-18T09:08:28;-3.70;99.90
15355;DHT22;7777;52.254;9.618;2022-12-18T09:10:54;-3.70;99.90
15355;DHT22;7777;52.254;9.618;2022-12-18T09:13:21;-3.60;99.90
15355;DHT22;7777;52.254;9.618;2022-12-18T09:15:52;-3.50;99.90
15355;DHT22;7777;52.254;9.618;2022-12-18T09:18:20;-3.50;99.90
15355;DHT22;7777;52.254;9.618;2022-12-18T09:20:47;-3.50;99.90
15355;DHT22;7777;52.254;9.618;2022-12-18T09:23:13;-3.50;99.90
15355;DHT22;7777;52.254;9.618;2022-12-18T09:25:39;-3.40;99.90
15355;DHT22;7777;52.254;9.618;2022-12-18T09:28:13;-3.40;99.90
15355;DHT22;7777;52.254;9.618;2022-12-18T09:30:46;-3.30;99.90
15355;DHT22;7777;52.254;9.618;2022-12-18T09:33:13;-3.20;99.90
15355;DHT22;7777;52.254;9.618;2022-12-18T09:35:40;-3.10;99.90
15355;DHT22;7777;52.254;9.618;2022-12-18T09:38:08;-3.10;99.90
15355;DHT22;7777;52.254;9.618;2022-12-18T09:40:46;-3.00;99.90
15355;DHT22;7777;52.254;9.618;2022-12-18T09:46:31;-3.00;99.90
15355;DHT22;7777;52.254;9.618;2022-12-18T09:49:03;-2.90;99.90
15355;DHT22;7777;52.254;9.618;2022-12-18T09:51:41;-2.90;99.90
15355;DHT22;7777;52.254;9.618;2022-12-18T09:54:19;-2.80;99.90
15355;DHT22;7777;52.254;9.618;2022-12-18T09:56:47;-2.80;99.90
15355;DHT22;7777;52.254;9.618;2022-12-18T09:59:34;-2.80;99.90
15355;DHT22;7777;52.254;9.618;2022-12-18T10:02:22;-2.70;99.90
15355;DHT22;7777;52.254;9.618;2022-12-18T10:05:11;-2.60;99.90
15355;DHT22;7777;52.254;9.618;2022-12-18T10:10:37;-2.50;99.90
15355;DHT22;7777;52.254;9.618;2022-12-18T10:13:36;-2.50;99.90
15355;DHT22;7777;52.254;9.618;2022-12-18T10:16:17;-2.40;99.90
15355;DHT22;7777;52.254;9.618;2022-12-18T10:25:02;-2.20;99.90
15355;DHT22;7777;52.254;9.618;2022-12-18T10:27:31;-2.20;99.90
15355;DHT22;7777;52.254;9.618;2022-12-18T10:29:57;-2.10;99.90
15355;DHT22;7777;52.254;9.618;2022-12-18T10:32:26;-2.00;99.90
15355;DHT22;7777;52.254;9.618;2022-12-18T10:34:56;-1.90;99.90
15355;DHT22;7777;52.254;9.618;2022-12-18T10:37:25;-1.80;99.90
15355;DHT22;7777;52.254;9.618;2022-12-18T10:40:12;-1.80;99.90
15355;DHT22;7777;52.254;9.618;2022-12-18T10:42:39;-1.80;99.90
15355;DHT22;7777;52.254;9.618;2022-12-18T10:45:15;-1.80;99.90
15355;DHT22;7777;52.254;9.618;2022-12-18T10:47:45;-1.80;99.90
15355;DHT22;7777;52.254;9.618;2022-12-18T10:50:23;-1.70;99.90
15355;DHT22;7777;52.254;9.618;2022-12-18T10:52:58;-1.70;99.90
15355;DHT22;7777;52.254;9.618;2022-12-18T10:55:39;-1.60;99.90
15355;DHT22;7777;52.254;9.618;2022-12-18T10:58:20;-1.50;99.90
15355;DHT22;7777;52.254;9.618;2022-12-18T11:01:09;-1.50;99.90
15355;DHT22;7777;52.254;9.618;2022-12-18T11:06:17;-1.40;99.90
15355;DHT22;7777;52.254;9.618;2022-12-18T11:11:24;-1.30;99.90
15355;DHT22;7777;52.254;9.618;2022-12-18T11:14:03;-1.30;99.90
15355;DHT22;7777;52.254;9.618;2022-12-18T11:16:42;-1.30;99.90
15355;DHT22;7777;52.254;9.618;2022-12-18T11:19:33;-1.20;99.90
15355;DHT22;7777;52.254;9.618;2022-12-18T11:22:28;-1.20;99.90
15355;DHT22;7777;52.254;9.618;2022-12-18T11:25:32;-1.10;99.90
15355;DHT22;7777;52.254;9.618;2022-12-18T11:27:58;-1.10;99.90
15355;DHT22;7777;52.254;9.618;2022-12-18T11:30:33;-1.00;99.90
15355;DHT22;7777;52.254;9.618;2022-12-18T11:35:57;-1.00;99.90
15355;DHT22;7777;52.254;9.618;2022-12-18T11:38:36;-1.00;99.90
15355;DHT22;7777;52.254;9.618;2022-12-18T11:41:29;-1.10;99.90
15355;DHT22;7777;52.254;9.618;2022-12-18T11:44:32;-0.90;99.90
15355;DHT22;7777;52.254;9.618;2022-12-18T11:50:20;-0.80;99.90
15355;DHT22;7777;52.254;9.618;2022-12-18T11:52:49;-0.80;99.90
15355;DHT22;7777;52.254;9.618;2022-12-18T11:55:39;-0.80;99.90
15355;DHT22;7777;52.254;9.618;2022-12-18T11:58:11;-0.80;99.90
15355;DHT22;7777;52.254;9.618;2022-12-18T12:00:52;-0.70;99.90
15355;DHT22;7777;52.254;9.618;2022-12-18T12:04:13;-0.70;99.90
15355;DHT22;7777;52.254;9.618;2022-12-18T12:06:29;-0.70;99.90
15355;DHT22;7777;52.254;9.618;2022-12-18T12:09:17;-0.80;99.90
15355;DHT22;7777;52.254;9.618;2022-12-18T12:12:15;-0.70;99.90
15355;DHT22;7777;52.254;9.618;2022-12-18T12:18:01;-0.70;99.90
15355;DHT22;7777;52.254;9.618;2022-12-18T12:20:58;-0.60;99.70
15355;DHT22;7777;52.254;9.618;2022-12-18T12:23:50;-0.70;99.80
15355;DHT22;7777;52.254;9.618;2022-12-18T12:29:47;-0.70;99.80
15355;DHT22;7777;52.254;9.618;2022-12-18T12:32:36;-0.60;99.50
15355;DHT22;7777;52.254;9.618;2022-12-18T12:38:42;-0.60;99.20
15355;DHT22;7777;52.254;9.618;2022-12-18T12:41:19;-0.60;99.10
15355;DHT22;7777;52.254;9.618;2022-12-18T12:44:09;-0.50;98.80
15355;DHT22;7777;52.254;9.618;2022-12-18T12:46:42;-0.40;98.80
15355;DHT22;7777;52.254;9.618;2022-12-18T12:49:29;-0.50;98.60
15355;DHT22;7777;52.254;9.618;2022-12-18T12:52:04;-0.50;98.20
15355;DHT22;7777;52.254;9.618;2022-12-18T12:54:33;-0.50;98.30
15355;DHT22;7777;52.254;9.618;2022-12-18T12:57:13;-0.40;98.10
15355;DHT22;7777;52.254;9.618;2022-12-18T13:00:01;-0.40;98.10
15355;DHT22;7777;52.254;9.618;2022-12-18T13:08:23;-0.40;98.20
15355;DHT22;7777;52.254;9.618;2022-12-18T13:10:51;-0.30;97.80
15355;DHT22;7777;52.254;9.618;2022-12-18T13:13:58;-0.30;97.70
15355;DHT22;7777;52.254;9.618;2022-12-18T13:16:25;-0.30;97.90
15355;DHT22;7777;52.254;9.618;2022-12-18T13:18:54;-0.40;97.90
15355;DHT22;7777;52.254;9.618;2022-12-18T13:21:34;-0.40;97.80
15355;DHT22;7777;52.254;9.618;2022-12-18T13:24:26;-0.30;98.00
15355;DHT22;7777;52.254;9.618;2022-12-18T13:26:54;-0.30;97.90
15355;DHT22;7777;52.254;9.618;2022-12-18T13:29:40;-0.30;97.70
15355;DHT22;7777;52.254;9.618;2022-12-18T13:32:20;-0.30;97.60
15355;DHT22;7777;52.254;9.618;2022-12-18T13:35:37;-0.30;97.70
15355;DHT22;7777;52.254;9.618;2022-12-18T13:38:21;-0.30;97.60
15355;DHT22;7777;52.254;9.618;2022-12-18T13:46:40;-0.30;97.30
15355;DHT22;7777;52.254;9.618;2022-12-18T13:51:51;-0.40;97.20
15355;DHT22;7777;52.254;9.618;2022-12-18T13:54:36;-0.40;97.20
15355;DHT22;7777;52.254;9.618;2022-12-18T13:57:22;-0.30;97.30
15355;DHT22;7777;52.254;9.618;2022-12-18T13:59:50;-0.40;97.20
15355;DHT22;7777;52.254;9.618;2022-12-18T14:02:20;-0.40;97.20
15355;DHT22;7777;52.254;9.618;2022-12-18T14:04:48;-0.40;97.30
15355;DHT22;7777;52.254;9.618;2022-12-18T14:07:24;-0.40;97.30
15355;DHT22;7777;52.254;9.618;2022-12-18T14:10:01;-0.40;97.30
15355;DHT22;7777;52.254;9.618;2022-12-18T14:12:30;-0.40;97.70
15355;DHT22;7777;52.254;9.618;2022-12-18T14:17:57;-0.40;98.10
15355;DHT22;7777;52.254;9.618;2022-12-18T14:20:25;-0.40;98.10
15355;DHT22;7777;52.254;9.618;2022-12-18T14:22:51;-0.50;98.10
15355;DHT22;7777;52.254;9.618;2022-12-18T14:25:18;-0.50;98.00
15355;DHT22;7777;52.254;9.618;2022-12-18T14:28:15;-0.50;98.00
15355;DHT22;7777;52.254;9.618;2022-12-18T14:30:41;-0.50;97.60
15355;DHT22;7777;52.254;9.618;2022-12-18T14:33:18;-0.50;97.40
15355;DHT22;7777;52.254;9.618;2022-12-18T14:35:55;-0.40;97.20
15355;DHT22;7777;52.254;9.618;2022-12-18T14:38:34;-0.50;96.90
15355;DHT22;7777;52.254;9.618;2022-12-18T14:41:03;-0.40;96.90
15355;DHT22;7777;52.254;9.618;2022-12-18T14:43:36;-0.40;96.90
15355;DHT22;7777;52.254;9.618;2022-12-18T14:46:05;-0.40;96.80
15355;DHT22;7777;52.254;9.618;2022-12-18T14:48:40;-0.40;96.70
15355;DHT22;7777;52.254;9.618;2022-12-18T14:53:47;-0.40;96.90
15355;DHT22;7777;52.254;9.618;2022-12-18T14:56:34;-0.40;96.90
15355;DHT22;7777;52.254;9.618;2022-12-18T14:59:11;-0.30;96.80
15355;DHT22;7777;52.254;9.618;2022-12-18T15:01:46;-0.30;97.00
15355;DHT22;7777;52.254;9.618;2022-12-18T15:04:35;-0.30;96.80
15355;DHT22;7777;52.254;9.618;2022-12-18T15:07:18;-0.30;96.80
15355;DHT22;7777;52.254;9.618;2022-12-18T15:10:13;-0.30;96.90
15355;DHT22;7777;52.254;9.618;2022-12-18T15:12:50;-0.30;96.80
15355;DHT22;7777;52.254;9.618;2022-12-18T15:23:45;-0.30;96.10
15355;DHT22;7777;52.254;9.618;2022-12-18T15:26:14;-0.30;95.90
15355;DHT22;7777;52.254;9.618;2022-12-18T15:28:47;-0.20;95.70
15355;DHT22;7777;52.254;9.618;2022-12-18T15:33:46;-0.20;95.50
15355;DHT22;7777;52.254;9.618;2022-12-18T15:36:28;-0.30;95.50
15355;DHT22;7777;52.254;9.618;2022-12-18T15:39:01;-0.30;95.50
15355;DHT22;7777;52.254;9.618;2022-12-18T15:41:28;-0.30;95.60
15355;DHT22;7777;52.254;9.618;2022-12-18T15:43:56;-0.30;95.40
15355;DHT22;7777;52.254;9.618;2022-12-18T15:46:24;-0.30;95.30
15355;DHT22;7777;52.254;9.618;2022-12-18T15:48:53;-0.30;95.40
15355;DHT22;7777;52.254;9.618;2022-12-18T15:51:23;-0.30;95.50
15355;DHT22;7777;52.254;9.618;2022-12-18T15:53:55;-0.20;95.50
15355;DHT22;7777;52.254;9.618;2022-12-18T15:56:22;-0.30;95.40
15355;DHT22;7777;52.254;9.618;2022-12-18T15:59:12;-0.30;95.30
15355;DHT22;7777;52.254;9.618;2022-12-18T16:01:39;-0.30;95.40
15355;DHT22;7777;52.254;9.618;2022-12-18T16:04:13;-0.30;95.20
15355;DHT22;7777;52.254;9.618;2022-12-18T16:06:40;-0.30;95.40
15355;DHT22;7777;52.254;9.618;2022-12-18T16:09:07;-0.30;95.40
15355;DHT22;7777;52.254;9.618;2022-12-18T16:11:35;-0.30;95.60
15355;DHT22;7777;52.254;9.618;2022-12-18T16:14:26;-0.30;95.20
15355;DHT22;7777;52.254;9.618;2022-12-18T16:16:59;-0.30;95.40
15355;DHT22;7777;52.254;9.618;2022-12-18T16:19:27;-0.30;95.20
15355;DHT22;7777;52.254;9.618;2022-12-18T16:21:55;-0.30;95.30
15355;DHT22;7777;52.254;9.618;2022-12-18T16:24:23;-0.30;95.20
15355;DHT22;7777;52.254;9.618;2022-12-18T16:26:51;-0.30;95.30
15355;DHT22;7777;52.254;9.618;2022-12-18T16:29:18;-0.30;95.20
15355;DHT22;7777;52.254;9.618;2022-12-18T16:31:50;-0.30;95.40
15355;DHT22;7777;52.254;9.618;2022-12-18T16:34:22;-0.30;95.10
15355;DHT22;7777;52.254;9.618;2022-12-18T16:36:52;-0.30;95.30
15355;DHT22;7777;52.254;9.618;2022-12-18T16:39:21;-0.30;95.10
15355;DHT22;7777;52.254;9.618;2022-12-18T16:41:47;-0.30;94.90
15355;DHT22;7777;52.254;9.618;2022-12-18T16:44:14;-0.20;95.00
15355;DHT22;7777;52.254;9.618;2022-12-18T16:46:40;-0.20;95.10
15355;DHT22;7777;52.254;9.618;2022-12-18T16:49:17;-0.20;95.10
15355;DHT22;7777;52.254;9.618;2022-12-18T16:51:43;-0.20;95.00
15355;DHT22;7777;52.254;9.618;2022-12-18T16:54:11;-0.20;95.00
15355;DHT22;7777;52.254;9.618;2022-12-18T16:56:37;-0.20;94.80
15355;DHT22;7777;52.254;9.618;2022-12-18T16:59:04;-0.20;94.90
15355;DHT22;7777;52.254;9.618;2022-12-18T17:01:31;-0.10;95.20
15355;DHT22;7777;52.254;9.618;2022-12-18T17:04:05;-0.20;95.10
15355;DHT22;7777;52.254;9.618;2022-12-18T17:06:33;-0.20;95.50
15355;DHT22;7777;52.254;9.618;2022-12-18T17:09:03;-0.20;95.40
15355;DHT22;7777;52.254;9.618;2022-12-18T17:11:32;-0.10;95.10
15355;DHT22;7777;52.254;9.618;2022-12-18T17:13:59;-0.20;95.30
15355;DHT22;7777;52.254;9.618;2022-12-18T17:16:31;-0.20;95.30
15355;DHT22;7777;52.254;9.618;2022-12-18T17:18:57;-0.20;95.40
15355;DHT22;7777;52.254;9.618;2022-12-18T17:21:22;-0.20;95.40
15355;DHT22;7777;52.254;9.618;2022-12-18T17:23:48;-0.20;95.30
15355;DHT22;7777;52.254;9.618;2022-12-18T17:26:14;-0.20;95.30
15355;DHT22;7777;52.254;9.618;2022-12-18T17:28:40;-0.20;95.30
15355;DHT22;7777;52.254;9.618;2022-12-18T17:31:16;-0.10;95.40
15355;DHT22;7777;52.254;9.618;2022-12-18T17:33:43;-0.20;95.30
15355;DHT22;7777;52.254;9.618;2022-12-18T17:36:09;-0.20;95.20
15355;DHT22;7777;52.254;9.618;2022-12-18T17:38:35;-0.20;95.20
15355;DHT22;7777;52.254;9.618;2022-12-18T17:41:03;-0.10;95.30
15355;DHT22;7777;52.254;9.618;2022-12-18T17:43:30;-0.20;95.00